Kezdőlap
METAR-TAF:

METAR-TAF

Repülőterek :

Auckland, Új-Zéland

földrajzi szélesség: 37-01S, földrajzi hosszúság: 174-48E, magasság: 7 m

Jelenlegi meteorológiai megfigyelések

A jelentés 10 perccel ezelõtt készült, 15:30 UTC
Délkeleti szél 2 kt
Hőmérséklet 10°C
Páratartalom 100%
Légköri nyomás 1034 hPa
Látótávolság 10 km, vagy több

METAR: NZAA 181530Z AUTO 14002KT 9999 NCD 10/10 Q1034 NOSIG

Idő: 03:40 (15:40 UTC)

Előrejelzés

A jelentés 4 órával és 34 perccel ezelõtt készült, 11:06 UTC
Az előrejelzés 18-én 12 óra UTC és 19-én 12 óra UTC között érvényes
Kelet-délkeleti szél 5 kt
Látótávolság 10 km, vagy több
Kevés felhő 4500 lábon
19-én 01 óra UTC és 19-én 03 óra UTC között fokozatosan kialakuló
Dél-délnyugati szél 10 kt
19-én 06 óra UTC és 19-én 08 óra UTC között fokozatosan kialakuló
Különbözõ irányokból fújó szél 2 kt

TAF: NZAA 181106Z 1812/1912 12005KT 9999 FEW045 BECMG 1901/1903 20010KT BECMG 1906/1908 VRB02KT

Meteorológiai megfigyelések és előrejelzések több, mint 4000 repülőtéren (METAR és TAF jelentéseket).

A térképen piros és sárga pontok jelzik az elérhető meteorológiai állomásokat.

Mozgassa az egeret a pont fölött, hogy megjelenjen az állomás neve.

Azután kattintson az időjárási megfigyelések és előrejelzések megtekintéséhez.

A térkép megváltoztatása: kattintson a fekete keresztel jelölt zöld gombra ráközelítéshez, a vonallal jelölt zöld gombra távolításhoz, vagy a zöld nyilakra a szomszédos térképek eléréséhez.


METAR-TAF: